Time;durP1;ratioP1;P1;durP2;ratioP2;P2;SDS_P1;SDS_P2;PMS_P1;PMS_P2;Temp;Humidity;BMP_temperature;BMP_pressure;BME280_temperature;BME280_humidity;BME280_pressure;Samples;Min_cycle;Max_cycle;Signal;HPM_P1;HPM_P2
2023/08/29 00:01:36;;;;;;;2.40;2.20;;;14.60;99.90;;;;;;5052828;28;20471;-59
2023/08/29 00:04:03;;;;;;;5.37;2.30;;;14.50;99.90;;;;;;5053156;28;20809;-59
2023/08/29 00:06:31;;;;;;;4.53;2.53;;;14.50;99.90;;;;;;5053084;28;20440;-59
2023/08/29 00:08:58;;;;;;;2.07;1.93;;;14.50;99.90;;;;;;5052760;28;20444;-59
2023/08/29 00:11:25;;;;;;;5.47;2.10;;;14.40;99.90;;;;;;5053120;28;20444;-59
2023/08/29 00:13:54;;;;;;;4.53;2.57;;;14.40;99.90;;;;;;5053410;28;20435;-59
2023/08/29 00:16:20;;;;;;;2.63;2.43;;;14.40;99.90;;;;;;5053271;28;20479;-59
2023/08/29 00:18:47;;;;;;;4.47;2.00;;;14.40;99.90;;;;;;5053240;28;20444;-59
2023/08/29 00:21:14;;;;;;;3.87;2.47;;;14.40;99.90;;;;;;5052928;28;20440;-59
2023/08/29 00:23:42;;;;;;;3.60;2.00;;;14.40;99.90;;;;;;5053264;28;20452;-58
2023/08/29 00:26:09;;;;;;;2.20;2.00;;;14.40;99.90;;;;;;5053577;28;20944;-60
2023/08/29 00:28:35;;;;;;;4.53;2.90;;;14.30;99.90;;;;;;5057076;28;20451;-60
2023/08/29 00:31:02;;;;;;;3.83;2.67;;;14.30;99.90;;;;;;5057253;28;20444;-59
2023/08/29 00:33:29;;;;;;;2.63;2.43;;;14.30;99.90;;;;;;5057069;28;21048;-59
2023/08/29 00:35:56;;;;;;;5.20;2.77;;;14.30;99.90;;;;;;5057208;28;20439;-60
2023/08/29 00:38:22;;;;;;;3.57;2.80;;;14.30;99.90;;;;;;5057458;28;20471;-59
2023/08/29 00:40:50;;;;;;;3.73;2.50;;;14.30;99.90;;;;;;5057670;28;20444;-60
2023/08/29 00:43:17;;;;;;;3.17;2.70;;;14.20;99.90;;;;;;5057129;28;20463;-59
2023/08/29 00:45:45;;;;;;;3.10;2.80;;;14.20;99.90;;;;;;5057059;28;20443;-60
2023/08/29 00:48:14;;;;;;;5.27;2.63;;;14.10;99.90;;;;;;5056715;28;20428;-60
2023/08/29 00:50:42;;;;;;;4.33;2.27;;;14.10;99.90;;;;;;5056738;28;20440;-60
2023/08/29 00:53:09;;;;;;;2.17;1.77;;;14.10;99.90;;;;;;5056135;28;20466;-59
2023/08/29 00:55:36;;;;;;;2.73;2.50;;;14.10;99.90;;;;;;5056563;28;20446;-61
2023/08/29 00:58:05;;;;;;;3.70;2.30;;;14.10;99.90;;;;;;5056556;28;21005;-61
2023/08/29 01:00:33;;;;;;;5.27;2.40;;;14.10;99.90;;;;;;5057231;28;20447;-58
2023/08/29 01:03:00;;;;;;;2.60;2.40;;;14.00;99.90;;;;;;5057061;28;20475;-60
2023/08/29 01:05:28;;;;;;;2.60;2.37;;;14.00;99.90;;;;;;5056401;28;20440;-59
2023/08/29 01:07:58;;;;;;;4.90;2.30;;;14.00;99.90;;;;;;5056230;28;20440;-59
2023/08/29 01:10:32;;;;;;;3.20;2.50;;;14.00;99.90;;;;;;5056142;28;20450;-59
2023/08/29 01:13:10;;;;;;;3.70;2.60;;;14.00;99.90;;;;;;5056288;28;20467;-59
2023/08/29 01:15:39;;;;;;;2.40;2.20;;;14.00;99.90;;;;;;5057055;28;20431;-58
2023/08/29 01:18:08;;;;;;;3.27;2.60;;;14.00;99.90;;;;;;5056007;28;21026;-59
2023/08/29 01:20:37;;;;;;;2.90;2.70;;;14.00;99.90;;;;;;5056895;28;20439;-59
2023/08/29 01:23:11;;;;;;;3.17;2.60;;;14.00;99.90;;;;;;5056075;28;21015;-58
2023/08/29 01:25:46;;;;;;;2.53;2.33;;;14.00;99.90;;;;;;5056648;28;20428;-59
2023/08/29 01:28:15;;;;;;;4.70;2.90;;;14.00;99.90;;;;;;5055905;28;20424;-60
2023/08/29 01:30:45;;;;;;;3.80;2.77;;;14.00;99.90;;;;;;5055598;28;20946;-59
2023/08/29 01:33:12;;;;;;;3.10;2.80;;;14.00;99.90;;;;;;5056030;28;20826;-60
2023/08/29 01:35:45;;;;;;;3.77;2.83;;;14.00;99.90;;;;;;5056150;28;20444;-58
2023/08/29 01:38:12;;;;;;;3.90;3.50;;;13.90;99.90;;;;;;5055702;28;20574;-60
2023/08/29 01:40:39;;;;;;;3.00;2.73;;;13.90;99.90;;;;;;5055899;28;20443;-59
2023/08/29 01:43:06;;;;;;;3.20;2.90;;;13.90;99.90;;;;;;5055804;28;20470;-58
2023/08/29 01:45:34;;;;;;;3.80;3.50;;;13.80;99.90;;;;;;5056144;28;20440;-59
2023/08/29 01:48:00;;;;;;;8.70;3.37;;;13.80;99.90;;;;;;5055995;28;20440;-60
2023/08/29 01:50:28;;;;;;;3.93;2.87;;;13.80;99.90;;;;;;5056534;28;20436;-59
2023/08/29 01:52:55;;;;;;;3.90;3.60;;;13.80;99.90;;;;;;5055895;28;20466;-60
2023/08/29 01:55:23;;;;;;;4.50;3.50;;;13.80;99.90;;;;;;5055698;28;20451;-58
2023/08/29 01:57:51;;;;;;;4.33;3.93;;;13.80;99.90;;;;;;5055947;28;20502;-59
2023/08/29 02:00:19;;;;;;;5.00;3.97;;;13.80;99.90;;;;;;5055845;28;20443;-60
2023/08/29 02:02:47;;;;;;;4.17;3.77;;;13.80;99.90;;;;;;5055706;28;20467;-59
2023/08/29 02:05:13;;;;;;;4.90;4.20;;;13.80;99.90;;;;;;5055801;28;20451;-60
2023/08/29 02:07:40;;;;;;;4.87;4.47;;;13.80;99.90;;;;;;5056079;28;20451;-60
2023/08/29 02:10:08;;;;;;;3.77;3.47;;;13.80;99.90;;;;;;5056420;28;20626;-59
2023/08/29 02:12:35;;;;;;;7.27;4.00;;;13.80;99.90;;;;;;5056148;28;20479;-60
2023/08/29 02:15:02;;;;;;;6.23;4.77;;;13.80;99.90;;;;;;5055378;28;20442;-59
2023/08/29 02:17:29;;;;;;;5.10;4.60;;;13.80;99.90;;;;;;5055193;28;20483;-60
2023/08/29 02:19:57;;;;;;;6.63;4.30;;;13.70;99.90;;;;;;5054952;28;20452;-60
2023/08/29 02:22:24;;;;;;;6.50;4.70;;;13.80;99.90;;;;;;5054894;28;20460;-60
2023/08/29 02:24:51;;;;;;;4.80;4.50;;;13.80;99.90;;;;;;5054900;28;20436;-60
2023/08/29 02:27:17;;;;;;;5.53;4.57;;;13.70;99.90;;;;;;5054882;28;20826;-59
2023/08/29 02:29:44;;;;;;;6.20;4.80;;;13.70;99.90;;;;;;5054747;28;20945;-59
2023/08/29 02:32:11;;;;;;;7.70;4.70;;;13.60;99.90;;;;;;5054736;28;20471;-60
2023/08/29 02:34:38;;;;;;;5.10;4.60;;;13.60;99.90;;;;;;5054814;28;20467;-60
2023/08/29 02:37:06;;;;;;;7.73;5.20;;;13.60;99.90;;;;;;5055187;28;20480;-59
2023/08/29 02:39:33;;;;;;;5.23;4.20;;;13.60;99.90;;;;;;5054791;28;20492;-59
2023/08/29 02:42:00;;;;;;;4.60;4.27;;;13.50;99.90;;;;;;5055409;28;20471;-59
2023/08/29 02:44:26;;;;;;;6.33;5.43;;;13.50;99.90;;;;;;5054982;28;20432;-59
2023/08/29 02:46:53;;;;;;;5.50;5.00;;;13.50;99.90;;;;;;5054698;28;20934;-59
2023/08/29 02:49:20;;;;;;;6.37;5.17;;;13.40;99.90;;;;;;5054777;28;20447;-60
2023/08/29 02:51:47;;;;;;;5.30;4.80;;;13.40;99.90;;;;;;5053138;28;20464;-59
2023/08/29 02:54:15;;;;;;;6.07;5.17;;;13.40;99.90;;;;;;5055054;28;20440;-59
2023/08/29 02:56:42;;;;;;;5.80;5.13;;;13.40;99.90;;;;;;5055161;28;20816;-60
2023/08/29 02:59:08;;;;;;;6.43;5.83;;;13.30;99.90;;;;;;5055064;28;20483;-60
2023/08/29 03:01:35;;;;;;;6.60;6.10;;;13.30;99.90;;;;;;5055200;28;20472;-59
2023/08/29 03:04:02;;;;;;;6.63;5.97;;;13.20;99.90;;;;;;5054471;28;20436;-60
2023/08/29 03:06:29;;;;;;;8.33;6.07;;;13.20;99.90;;;;;;5054063;28;21007;-60
2023/08/29 03:08:55;;;;;;;7.00;5.97;;;13.20;99.90;;;;;;5054583;28;20444;-59
2023/08/29 03:11:23;;;;;;;7.03;6.23;;;13.10;99.90;;;;;;5054356;28;20447;-59
2023/08/29 03:13:50;;;;;;;7.00;6.40;;;13.10;99.90;;;;;;5054515;28;20920;-59
2023/08/29 03:16:18;;;;;;;6.37;5.70;;;13.10;99.90;;;;;;5054745;28;20444;-59
2023/08/29 03:18:44;;;;;;;7.63;6.40;;;13.10;99.90;;;;;;5054258;28;20479;-60
2023/08/29 03:21:11;;;;;;;7.13;6.43;;;13.10;99.90;;;;;;5053920;28;20942;-59
2023/08/29 03:23:38;;;;;;;8.40;7.47;;;13.00;99.90;;;;;;5054100;28;20933;-60
2023/08/29 03:26:10;;;;;;;7.37;6.67;;;13.00;99.90;;;;;;5054396;28;20443;-61
2023/08/29 03:28:38;;;;;;;9.40;7.10;;;13.00;99.90;;;;;;5054454;28;20440;-59
2023/08/29 03:31:12;;;;;;;7.70;6.93;;;13.00;99.90;;;;;;5054341;28;20451;-60
2023/08/29 03:33:39;;;;;;;11.27;6.50;;;13.00;99.90;;;;;;5053705;28;20432;-60
2023/08/29 03:36:07;;;;;;;7.17;6.37;;;13.00;99.90;;;;;;5053865;28;20440;-60
2023/08/29 03:38:36;;;;;;;7.00;6.40;;;13.00;99.90;;;;;;5053505;28;20480;-60
2023/08/29 03:41:04;;;;;;;8.50;6.90;;;13.00;99.90;;;;;;5053229;28;20454;-60
2023/08/29 03:43:31;;;;;;;8.13;7.33;;;13.00;99.90;;;;;;5053506;28;20483;-60
2023/08/29 03:46:02;;;;;;;7.93;7.13;;;13.00;99.90;;;;;;5053235;28;20447;-59
2023/08/29 03:48:29;;;;;;;7.57;5.70;;;13.00;99.90;;;;;;5053484;28;20447;-59
2023/08/29 03:50:55;;;;;;;7.60;5.90;;;13.00;99.90;;;;;;5053053;28;20956;-60
2023/08/29 03:53:23;;;;;;;8.57;6.30;;;13.00;99.90;;;;;;5053265;28;20460;-58
2023/08/29 03:55:50;;;;;;;8.00;7.17;;;13.00;99.90;;;;;;5053166;28;20451;-59
2023/08/29 03:58:16;;;;;;;7.67;6.97;;;13.00;99.90;;;;;;5053277;28;20913;-59
2023/08/29 04:00:44;;;;;;;7.10;6.50;;;13.00;99.90;;;;;;5052990;28;20451;-59
2023/08/29 04:03:12;;;;;;;7.47;6.00;;;13.00;99.90;;;;;;5054428;28;20460;-59
2023/08/29 04:05:39;;;;;;;11.00;6.90;;;13.00;99.90;;;;;;5055903;28;20436;-56
2023/08/29 04:08:07;;;;;;;7.10;6.40;;;13.00;99.90;;;;;;5054645;28;20436;-58
2023/08/29 04:12:10;;;;;;;7.43;6.67;;;13.00;99.90;;;;;;5122614;27;20586;-60
2023/08/29 04:14:37;;;;;;;7.60;5.90;;;13.00;99.90;;;;;;5125062;28;20433;-59
2023/08/29 04:17:04;;;;;;;7.20;6.50;;;13.00;99.90;;;;;;5125862;28;20438;-59
2023/08/29 04:19:31;;;;;;;8.03;7.20;;;13.00;99.90;;;;;;5124055;28;20491;-59
2023/08/29 04:21:57;;;;;;;7.47;6.77;;;12.90;99.90;;;;;;5111938;28;20454;-59
2023/08/29 04:24:24;;;;;;;10.77;8.10;;;12.90;99.90;;;;;;5112597;28;20441;-60
2023/08/29 04:26:51;;;;;;;9.93;6.90;;;12.90;99.90;;;;;;5111370;28;20434;-60
2023/08/29 04:29:19;;;;;;;12.43;7.63;;;12.90;99.90;;;;;;5111161;28;20488;-59
2023/08/29 04:31:47;;;;;;;8.47;7.67;;;12.90;99.90;;;;;;5111234;28;20481;-60
2023/08/29 04:34:13;;;;;;;8.47;7.67;;;12.80;99.90;;;;;;5110926;28;20473;-60
2023/08/29 04:36:40;;;;;;;8.50;7.73;;;12.80;99.90;;;;;;5110322;28;20948;-60
2023/08/29 04:39:07;;;;;;;12.47;7.70;;;12.80;99.90;;;;;;5110969;28;20433;-60
2023/08/29 04:41:33;;;;;;;7.50;6.80;;;12.80;99.90;;;;;;5112190;28;20960;-59
2023/08/29 04:44:00;;;;;;;7.60;6.93;;;12.80;99.90;;;;;;5112621;28;20437;-58
2023/08/29 04:46:28;;;;;;;8.80;8.00;;;12.90;99.90;;;;;;5111456;28;20441;-60
2023/08/29 04:48:55;;;;;;;7.87;6.60;;;12.90;99.90;;;;;;5112257;28;20511;-60
2023/08/29 04:51:22;;;;;;;8.00;7.03;;;12.90;99.90;;;;;;5112078;28;20478;-61
2023/08/29 04:53:49;;;;;;;7.57;6.77;;;12.90;99.90;;;;;;5110640;28;20494;-61
2023/08/29 04:56:16;;;;;;;8.20;7.37;;;12.90;99.90;;;;;;5110664;28;20821;-60
2023/08/29 04:58:43;;;;;;;9.27;8.37;;;12.90;99.90;;;;;;5110319;28;20957;-58
2023/08/29 05:01:10;;;;;;;8.00;7.20;;;12.90;99.90;;;;;;5109233;28;20442;-59
2023/08/29 05:03:37;;;;;;;8.93;7.53;;;12.90;99.90;;;;;;5110421;28;20499;-59
2023/08/29 05:06:04;;;;;;;9.63;7.70;;;12.90;99.90;;;;;;5110348;28;20449;-60
2023/08/29 05:08:34;;;;;;;8.83;8.03;;;12.90;99.90;;;;;;5110301;28;20545;-59
2023/08/29 05:11:01;;;;;;;8.07;7.27;;;13.00;99.90;;;;;;5110629;28;21094;-60
2023/08/29 05:13:28;;;;;;;8.40;7.60;;;13.00;99.90;;;;;;5110277;28;20548;-59
2023/08/29 05:15:54;;;;;;;7.70;6.87;;;13.00;99.90;;;;;;5111111;28;20468;-59
2023/08/29 05:18:21;;;;;;;9.33;7.70;;;13.00;99.90;;;;;;5110220;28;20441;-59
2023/08/29 05:20:49;;;;;;;9.13;7.67;;;13.00;99.90;;;;;;5110451;28;20430;-59
2023/08/29 05:23:16;;;;;;;7.40;6.70;;;13.10;99.90;;;;;;5097432;28;20461;-59
2023/08/29 05:25:43;;;;;;;7.73;7.00;;;13.10;99.90;;;;;;5096197;28;20446;-59
2023/08/29 05:28:10;;;;;;;10.90;8.27;;;13.10;99.90;;;;;;5096908;28;20438;-59
2023/08/29 05:30:37;;;;;;;8.53;7.70;;;13.20;99.90;;;;;;5096962;28;20474;-59
2023/08/29 05:33:04;;;;;;;8.37;7.60;;;13.20;99.90;;;;;;5096027;28;20975;-60
2023/08/29 05:35:30;;;;;;;9.10;7.83;;;13.20;99.90;;;;;;5097035;28;20445;-60
2023/08/29 05:37:58;;;;;;;8.00;7.20;;;13.30;99.90;;;;;;5096746;28;20438;-59
2023/08/29 05:40:25;;;;;;;12.83;8.17;;;13.30;99.90;;;;;;5096487;28;20940;-59
2023/08/29 05:42:52;;;;;;;10.00;7.60;;;13.30;99.90;;;;;;5096510;28;20464;-59
2023/08/29 05:45:18;;;;;;;9.57;7.13;;;13.40;99.90;;;;;;5096334;28;20449;-60
2023/08/29 05:47:45;;;;;;;12.40;7.40;;;13.40;99.90;;;;;;5096887;28;20442;-60
2023/08/29 05:50:12;;;;;;;8.50;7.77;;;13.40;99.90;;;;;;5096500;28;20792;-59
2023/08/29 05:52:39;;;;;;;7.67;6.97;;;13.40;99.90;;;;;;5095958;28;20477;-58
2023/08/29 05:55:08;;;;;;;9.60;8.67;;;13.50;99.90;;;;;;5095968;28;20450;-60
2023/08/29 05:57:34;;;;;;;7.83;7.13;;;13.50;99.90;;;;;;5096163;28;20499;-59
2023/08/29 06:00:05;;;;;;;8.57;7.67;;;13.50;99.90;;;;;;5096404;28;20781;-59
2023/08/29 06:02:32;;;;;;;8.43;7.53;;;13.50;99.90;;;;;;5096166;28;20458;-60
2023/08/29 06:04:59;;;;;;;7.97;7.17;;;13.50;99.90;;;;;;5095955;28;20438;-60
2023/08/29 06:07:26;;;;;;;8.17;7.27;;;13.50;99.90;;;;;;5096306;28;20477;-59
2023/08/29 06:09:53;;;;;;;8.83;7.20;;;13.50;99.90;;;;;;5095460;28;20445;-59
2023/08/29 06:12:21;;;;;;;8.97;7.87;;;13.50;99.90;;;;;;5095395;28;20488;-60
2023/08/29 06:14:48;;;;;;;8.57;7.17;;;13.50;99.90;;;;;;5095797;28;20434;-59
2023/08/29 06:17:14;;;;;;;8.30;7.07;;;13.60;99.90;;;;;;5095637;28;20463;-61
2023/08/29 06:19:41;;;;;;;9.30;7.10;;;13.60;99.90;;;;;;5096249;28;20438;-60
2023/08/29 06:22:08;;;;;;;9.63;8.73;;;13.60;99.90;;;;;;5095175;28;20461;-60
2023/08/29 06:24:35;;;;;;;8.57;7.70;;;13.60;99.90;;;;;;5096025;28;20441;-60
2023/08/29 06:27:01;;;;;;;8.67;7.77;;;13.70;99.90;;;;;;5095986;28;20460;-58
2023/08/29 06:29:29;;;;;;;9.43;8.07;;;13.70;99.90;;;;;;5096042;28;20446;-58
2023/08/29 06:31:56;;;;;;;9.50;8.53;;;13.70;99.90;;;;;;5096071;28;20522;-59
2023/08/29 06:34:24;;;;;;;9.30;7.60;;;13.70;99.90;;;;;;5094991;28;20446;-58
2023/08/29 06:36:51;;;;;;;8.00;7.30;;;13.70;99.90;;;;;;5097015;28;20449;-57
2023/08/29 06:39:18;;;;;;;9.17;8.20;;;13.70;99.90;;;;;;5096285;28;20785;-59
2023/08/29 06:41:46;;;;;;;8.80;7.90;;;13.80;99.90;;;;;;5095890;28;20458;-60
2023/08/29 06:44:12;;;;;;;7.90;7.10;;;13.80;99.90;;;;;;5094745;28;20450;-59
2023/08/29 06:46:40;;;;;;;7.90;7.10;;;13.80;99.90;;;;;;5094828;28;20449;-59
2023/08/29 06:49:07;;;;;;;9.47;7.80;;;13.90;99.90;;;;;;5094609;28;20434;-59
2023/08/29 06:51:34;;;;;;;8.93;7.53;;;13.90;99.90;;;;;;5095477;28;20482;-59
2023/08/29 06:54:01;;;;;;;11.20;6.77;;;14.00;99.90;;;;;;5095708;28;20438;-59
2023/08/29 06:56:28;;;;;;;8.47;7.67;;;14.00;99.90;;;;;;5095953;28;20451;-60
2023/08/29 06:58:54;;;;;;;8.20;7.40;;;14.10;99.90;;;;;;5096289;28;20851;-61
2023/08/29 07:01:21;;;;;;;7.93;7.23;;;14.10;99.90;;;;;;5095820;28;20438;-58
2023/08/29 07:03:49;;;;;;;9.97;8.07;;;14.20;99.90;;;;;;5096092;28;20437;-59
2023/08/29 07:06:16;;;;;;;7.77;7.00;;;14.20;99.90;;;;;;5095876;28;20434;-59
2023/08/29 07:08:43;;;;;;;8.70;7.80;;;14.30;99.90;;;;;;5094410;28;20951;-58
2023/08/29 07:11:10;;;;;;;9.97;7.57;;;14.40;99.90;;;;;;5094746;28;20486;-59
2023/08/29 07:13:37;;;;;;;10.23;7.10;;;14.50;99.90;;;;;;5096178;28;20446;-61
2023/08/29 07:16:04;;;;;;;8.03;6.63;;;14.60;99.90;;;;;;5094823;28;20445;-60
2023/08/29 07:18:32;;;;;;;7.90;6.80;;;14.70;99.90;;;;;;5095365;28;20537;-60
2023/08/29 07:21:01;;;;;;;7.47;6.60;;;14.80;99.90;;;;;;5094896;28;20820;-59
2023/08/29 07:23:28;;;;;;;6.87;6.17;;;14.90;99.90;;;;;;5094908;28;20469;-60
2023/08/29 07:25:55;;;;;;;8.33;6.97;;;15.10;99.90;;;;;;5094475;28;20446;-58
2023/08/29 07:28:23;;;;;;;7.47;6.57;;;15.20;99.90;;;;;;5094059;28;20438;-60
2023/08/29 07:30:51;;;;;;;7.70;6.27;;;15.30;99.90;;;;;;5094606;28;20481;-58
2023/08/29 07:33:18;;;;;;;6.30;5.70;;;15.50;99.90;;;;;;5094333;28;20824;-59
2023/08/29 07:35:46;;;;;;;9.93;6.30;;;15.70;99.90;;;;;;5094632;28;20442;-60
2023/08/29 07:38:15;;;;;;;6.47;5.87;;;15.80;99.90;;;;;;5094659;28;20989;-59
2023/08/29 07:40:44;;;;;;;7.03;5.67;;;15.90;99.90;;;;;;5095468;28;20446;-58
2023/08/29 07:43:10;;;;;;;6.43;5.83;;;16.00;99.90;;;;;;5093966;28;20506;-60
2023/08/29 07:45:37;;;;;;;5.83;5.33;;;16.00;99.90;;;;;;5097979;28;20446;-58
2023/08/29 07:48:05;;;;;;;6.20;5.70;;;16.00;99.90;;;;;;5099490;28;20441;-59
2023/08/29 07:50:31;;;;;;;6.70;6.10;;;16.00;99.90;;;;;;5096048;28;20464;-59
2023/08/29 07:52:58;;;;;;;7.17;5.73;;;16.10;99.90;;;;;;5096046;28;20486;-59
2023/08/29 07:55:27;;;;;;;6.33;5.70;;;16.20;99.90;;;;;;5098874;28;20434;-59
2023/08/29 07:57:53;;;;;;;6.60;6.00;;;16.30;99.90;;;;;;5100286;28;20442;-60
2023/08/29 08:00:21;;;;;;;8.00;6.00;;;16.30;99.90;;;;;;5098601;28;20442;-59
2023/08/29 08:02:47;;;;;;;7.00;6.40;;;16.30;99.90;;;;;;5096663;28;20968;-59
2023/08/29 08:05:16;;;;;;;6.63;5.93;;;16.30;99.90;;;;;;5099347;28;20438;-59
2023/08/29 08:07:45;;;;;;;7.53;6.60;;;16.50;99.90;;;;;;5100791;28;20444;-60
2023/08/29 08:10:12;;;;;;;7.23;6.00;;;16.50;99.90;;;;;;5096177;28;20460;-61
2023/08/29 08:12:42;;;;;;;7.20;6.50;;;16.70;99.90;;;;;;5095613;28;20493;-59
2023/08/29 08:15:10;;;;;;;6.47;5.87;;;16.80;99.90;;;;;;5095349;28;20449;-59
2023/08/29 08:17:37;;;;;;;6.33;5.37;;;16.90;99.90;;;;;;5096298;28;20538;-59
2023/08/29 08:20:07;;;;;;;5.20;4.70;;;17.00;99.90;;;;;;5095300;28;20450;-59
2023/08/29 08:22:34;;;;;;;8.83;5.63;;;17.00;99.90;;;;;;5095022;28;20546;-58
2023/08/29 08:25:01;;;;;;;5.77;5.20;;;17.20;99.90;;;;;;5094679;28;20438;-59
2023/08/29 08:27:29;;;;;;;6.43;5.83;;;17.30;99.90;;;;;;5095626;28;20445;-60
2023/08/29 08:29:57;;;;;;;5.90;5.40;;;17.40;99.90;;;;;;5094303;28;20571;-59
2023/08/29 08:32:24;;;;;;;7.73;6.73;;;17.50;99.90;;;;;;5093644;28;20611;-59
2023/08/29 08:34:51;;;;;;;6.37;5.77;;;17.50;99.90;;;;;;5093442;28;20796;-59
2023/08/29 08:37:18;;;;;;;7.30;6.10;;;17.60;99.90;;;;;;5094781;28;20438;-59
2023/08/29 08:39:44;;;;;;;9.70;6.30;;;17.60;99.90;;;;;;5094642;28;20434;-59
2023/08/29 08:42:12;;;;;;;7.33;6.00;;;17.60;99.90;;;;;;5093486;28;20461;-60
2023/08/29 08:44:39;;;;;;;6.80;6.13;;;17.70;99.90;;;;;;5094632;28;20438;-59
2023/08/29 08:47:07;;;;;;;5.90;5.20;;;17.80;99.90;;;;;;5093315;28;20460;-59
2023/08/29 08:49:34;;;;;;;8.47;6.30;;;17.80;99.90;;;;;;5094304;28;20446;-59
2023/08/29 08:52:01;;;;;;;5.03;4.53;;;17.90;99.90;;;;;;5093367;28;20485;-59
2023/08/29 08:54:28;;;;;;;5.10;4.70;;;18.10;99.90;;;;;;5093558;28;20446;-58
2023/08/29 08:56:57;;;;;;;6.10;4.90;;;18.30;99.90;;;;;;5093913;28;20449;-60
2023/08/29 08:59:24;;;;;;;8.67;5.03;;;18.40;99.90;;;;;;5098206;28;20555;-59
2023/08/29 09:01:51;;;;;;;5.10;4.60;;;18.50;99.90;;;;;;5098351;28;20454;-59
2023/08/29 09:04:19;;;;;;;4.87;4.47;;;18.70;99.90;;;;;;5098485;28;20438;-59
2023/08/29 09:06:46;;;;;;;5.87;5.20;;;18.80;99.70;;;;;;5097868;28;20438;-60
2023/08/29 09:09:16;;;;;;;6.60;4.63;;;18.90;99.10;;;;;;5097302;28;20442;-59
2023/08/29 09:11:43;;;;;;;4.53;4.13;;;19.00;98.30;;;;;;5098231;28;21253;-59
2023/08/29 09:14:10;;;;;;;4.93;4.53;;;19.10;97.70;;;;;;5097337;28;20449;-58
2023/08/29 09:16:37;;;;;;;4.90;4.50;;;19.10;97.20;;;;;;5097762;28;20441;-59
2023/08/29 09:19:06;;;;;;;4.47;4.07;;;19.20;97.00;;;;;;5097702;28;20861;-60
2023/08/29 09:21:36;;;;;;;5.17;4.73;;;19.20;96.20;;;;;;5097325;28;20474;-59
2023/08/29 09:24:04;;;;;;;5.83;5.20;;;19.20;95.80;;;;;;5097352;28;20499;-58
2023/08/29 09:26:31;;;;;;;6.90;5.07;;;19.20;95.40;;;;;;5097511;28;20474;-59
2023/08/29 09:28:58;;;;;;;4.17;3.83;;;19.30;95.00;;;;;;5097395;28;20438;-59
2023/08/29 09:31:26;;;;;;;5.17;3.80;;;19.40;94.70;;;;;;5097202;28;20551;-59
2023/08/29 09:33:52;;;;;;;4.10;3.40;;;19.60;94.10;;;;;;5096902;28;20449;-58
2023/08/29 09:36:21;;;;;;;4.60;4.20;;;19.80;93.10;;;;;;5096783;28;20441;-59
2023/08/29 09:38:50;;;;;;;3.97;3.50;;;19.90;92.00;;;;;;5097272;28;20442;-60
2023/08/29 09:41:18;;;;;;;4.10;3.10;;;19.90;91.40;;;;;;5096091;28;20457;-60
2023/08/29 09:43:49;;;;;;;5.13;3.80;;;20.00;90.90;;;;;;5096981;28;20810;-60
2023/08/29 09:46:21;;;;;;;4.13;3.60;;;20.00;90.60;;;;;;5097028;28;20477;-59
2023/08/29 09:48:55;;;;;;;3.97;2.73;;;20.10;89.50;;;;;;5097133;28;20427;-58
2023/08/29 09:51:24;;;;;;;5.07;2.93;;;20.10;88.50;;;;;;5096561;28;20418;-59
2023/08/29 09:53:57;;;;;;;3.27;2.30;;;20.10;87.30;;;;;;5096081;28;20438;-60
2023/08/29 09:56:25;;;;;;;5.43;2.83;;;20.10;86.50;;;;;;5096281;28;20425;-59
2023/08/29 09:58:53;;;;;;;3.87;3.43;;;20.30;85.20;;;;;;5095477;28;20958;-60
2023/08/29 10:01:22;;;;;;;4.07;3.70;;;20.20;83.90;;;;;;5096000;28;20446;-59
2023/08/29 10:03:49;;;;;;;5.03;3.50;;;20.10;83.70;;;;;;5095996;28;20481;-59
2023/08/29 10:06:18;;;;;;;3.63;3.20;;;19.90;84.10;;;;;;5097028;28;20446;-59
2023/08/29 10:08:47;;;;;;;3.83;3.57;;;20.10;84.30;;;;;;5095984;28;20443;-60
2023/08/29 10:11:15;;;;;;;5.23;3.90;;;20.20;83.00;;;;;;5096215;28;20462;-60
2023/08/29 10:13:44;;;;;;;5.20;4.13;;;20.20;82.50;;;;;;5098306;28;20485;-59
2023/08/29 10:16:12;;;;;;;8.10;4.40;;;20.20;82.40;;;;;;5097814;28;20935;-60
2023/08/29 10:18:41;;;;;;;4.00;3.60;;;20.30;81.60;;;;;;5098982;28;20449;-60
2023/08/29 10:21:09;;;;;;;3.63;3.33;;;20.30;81.50;;;;;;5101109;28;20816;-61
2023/08/29 10:23:36;;;;;;;6.33;3.70;;;20.30;81.10;;;;;;5104677;28;20435;-59
2023/08/29 10:26:03;;;;;;;3.77;3.37;;;20.40;80.60;;;;;;5104768;28;20468;-60
2023/08/29 10:28:32;;;;;;;4.90;4.43;;;20.40;80.10;;;;;;5105831;28;20922;-59
2023/08/29 10:31:02;;;;;;;4.47;3.50;;;20.40;79.10;;;;;;5105832;28;20430;-59
2023/08/29 10:33:29;;;;;;;4.10;2.93;;;20.30;78.20;;;;;;5105307;28;20485;-60
2023/08/29 10:35:56;;;;;;;3.50;3.20;;;20.30;78.40;;;;;;5103640;28;20446;-59
2023/08/29 10:38:26;;;;;;;3.37;3.07;;;20.40;78.00;;;;;;5100164;28;20474;-60
2023/08/29 10:41:03;;;;;;;3.23;3.00;;;20.40;77.90;;;;;;5097643;28;20442;-60
2023/08/29 10:43:31;;;;;;;3.40;3.10;;;20.50;77.00;;;;;;5096953;28;20460;-59
2023/08/29 10:45:59;;;;;;;3.77;2.57;;;20.50;76.50;;;;;;5096933;28;20461;-59
2023/08/29 10:48:54;;;;;;;2.80;2.40;;;20.60;76.40;;;;;;5096372;28;20442;-59
2023/08/29 10:51:24;;;;;;;3.27;2.97;;;20.70;75.90;;;;;;5095759;28;20427;-61
2023/08/29 10:53:53;;;;;;;3.63;2.10;;;20.60;75.70;;;;;;5095885;28;20494;-59
2023/08/29 10:56:23;;;;;;;5.83;2.47;;;20.60;75.70;;;;;;5096565;28;20526;-59
2023/08/29 10:58:51;;;;;;;2.87;2.60;;;20.60;75.50;;;;;;5097155;28;20928;-60
2023/08/29 11:01:34;;;;;;;7.17;2.63;;;20.50;75.20;;;;;;5096406;28;20442;-59
2023/08/29 11:04:03;;;;;;;3.33;1.90;;;20.40;75.50;;;;;;5096489;28;20423;-60
2023/08/29 11:06:51;;;;;;;2.70;1.87;;;20.40;75.40;;;;;;5095862;28;20472;-60
2023/08/29 11:09:20;;;;;;;4.47;2.00;;;20.40;75.30;;;;;;5097008;28;20423;-59
2023/08/29 11:12:05;;;;;;;2.73;2.20;;;20.50;75.10;;;;;;5096552;28;20469;-60
2023/08/29 11:14:52;;;;;;;3.03;2.07;;;20.60;74.40;;;;;;5096607;28;20437;-60
2023/08/29 11:17:23;;;;;;;2.20;2.00;;;20.60;73.70;;;;;;5097186;28;20828;-60
2023/08/29 11:19:52;;;;;;;2.07;1.87;;;20.60;72.90;;;;;;5096648;28;20434;-60
2023/08/29 11:22:22;;;;;;;3.13;2.00;;;20.50;72.80;;;;;;5097181;28;20454;-59
2023/08/29 11:24:54;;;;;;;2.70;1.93;;;20.50;72.40;;;;;;5098356;28;20438;-61
2023/08/29 11:27:21;;;;;;;1.90;1.53;;;20.50;72.10;;;;;;5097268;28;20422;-61
2023/08/29 11:29:49;;;;;;;2.87;1.80;;;20.60;71.60;;;;;;5095739;28;20449;-60
2023/08/29 11:32:19;;;;;;;2.40;1.67;;;20.60;70.40;;;;;;5096247;28;20528;-60
2023/08/29 11:34:46;;;;;;;1.53;1.40;;;20.70;70.20;;;;;;5096805;28;20442;-60
2023/08/29 11:37:13;;;;;;;2.73;1.63;;;20.70;69.30;;;;;;5096203;28;20450;-58
2023/08/29 11:39:39;;;;;;;1.60;1.50;;;20.80;68.70;;;;;;5095904;28;20446;-61
2023/08/29 11:42:07;;;;;;;2.10;1.77;;;21.00;67.70;;;;;;5094935;28;20466;-60
2023/08/29 11:44:34;;;;;;;1.60;1.50;;;21.30;66.60;;;;;;5095654;28;20442;-60
2023/08/29 11:47:01;;;;;;;2.10;1.67;;;21.40;65.30;;;;;;5095543;28;20452;-60
2023/08/29 11:49:29;;;;;;;1.47;1.23;;;21.50;64.30;;;;;;5096059;28;20900;-60
2023/08/29 11:51:56;;;;;;;2.40;2.20;;;21.40;62.50;;;;;;5094982;28;20465;-60
2023/08/29 11:54:40;;;;;;;2.23;1.60;;;21.40;62.10;;;;;;5095112;28;20482;-61
2023/08/29 11:57:07;;;;;;;3.20;2.30;;;21.60;61.60;;;;;;5094596;28;20885;-59
2023/08/29 11:59:35;;;;;;;3.43;2.03;;;21.80;60.50;;;;;;5096042;28;20449;-57
2023/08/29 12:02:02;;;;;;;2.47;1.83;;;22.00;59.60;;;;;;5095067;28;20469;-59
2023/08/29 12:04:30;;;;;;;3.10;1.93;;;22.20;58.90;;;;;;5095218;28;20438;-59
2023/08/29 12:07:07;;;;;;;2.03;1.83;;;22.20;58.20;;;;;;5094556;28;20820;-59
2023/08/29 12:09:34;;;;;;;3.20;1.47;;;22.20;58.70;;;;;;5095261;28;20426;-59
2023/08/29 12:12:01;;;;;;;1.40;1.20;;;22.40;58.10;;;;;;5094657;28;20470;-59
2023/08/29 12:14:28;;;;;;;3.63;2.00;;;22.80;57.70;;;;;;5095141;28;20477;-60
2023/08/29 12:16:54;;;;;;;3.00;2.10;;;23.30;56.70;;;;;;5094965;28;20511;-60
2023/08/29 12:19:21;;;;;;;3.10;2.27;;;23.50;55.80;;;;;;5094791;28;20449;-60
2023/08/29 12:21:55;;;;;;;2.13;1.80;;;23.50;55.50;;;;;;5094538;28;20458;-58
2023/08/29 12:24:22;;;;;;;3.13;1.80;;;23.30;55.30;;;;;;5094781;28;20418;-60
2023/08/29 12:26:48;;;;;;;2.83;2.00;;;22.90;55.50;;;;;;5094432;28;20814;-60
2023/08/29 12:29:16;;;;;;;2.13;1.67;;;22.80;55.90;;;;;;5094898;28;20446;-59
2023/08/29 12:31:43;;;;;;;1.70;1.60;;;22.60;56.40;;;;;;5095301;28;20527;-60
2023/08/29 12:34:09;;;;;;;1.50;1.40;;;22.40;56.70;;;;;;5098837;28;20995;-58
2023/08/29 12:36:36;;;;;;;2.03;1.60;;;22.20;56.80;;;;;;5099405;28;20445;-60
2023/08/29 12:39:05;;;;;;;2.30;1.90;;;22.00;56.50;;;;;;5098290;28;20469;-60
2023/08/29 12:41:31;;;;;;;2.33;2.07;;;21.90;56.80;;;;;;5099158;28;20461;-60
2023/08/29 12:43:59;;;;;;;2.83;1.67;;;21.90;56.80;;;;;;5098702;28;20434;-60
2023/08/29 12:46:25;;;;;;;2.13;1.43;;;22.00;56.50;;;;;;5098018;28;20442;-61
2023/08/29 12:48:52;;;;;;;2.30;1.97;;;22.00;56.20;;;;;;5098375;28;20453;-62
2023/08/29 12:51:19;;;;;;;2.43;1.50;;;22.20;55.70;;;;;;5098085;28;20442;-59